Time;durP1;ratioP1;P1;durP2;ratioP2;P2;SDS_P1;SDS_P2;PMS_P1;PMS_P2;Temp;Humidity;BMP_temperature;BMP_pressure;BME280_temperature;BME280_humidity;BME280_pressure;Samples;Min_cycle;Max_cycle;Signal;HPM_P1;HPM_P2
2021/08/23 00:00:41;;;;;;;6.33;4.50;;;;;;;19.24;68.22;100420.63;1444986;89;21500;-88
2021/08/23 00:03:07;;;;;;;5.80;5.13;;;;;;;19.25;68.01;100420.44;1455274;89;21648;-88
2021/08/23 00:05:33;;;;;;;7.93;4.73;;;;;;;19.25;67.91;100416.42;1446108;90;23377;-88
2021/08/23 00:07:59;;;;;;;4.90;4.47;;;;;;;19.27;67.99;100410.31;1444494;90;21493;-88
2021/08/23 00:10:26;;;;;;;4.50;3.90;;;;;;;19.29;67.97;100406.91;1447975;89;22471;-88
2021/08/23 00:12:53;;;;;;;6.00;4.47;;;;;;;19.33;68.07;100409.52;1448502;89;21582;-89
2021/08/23 00:15:19;;;;;;;5.17;4.63;;;;;;;19.37;67.73;100405.90;1441384;89;21523;-90
2021/08/23 00:17:45;;;;;;;10.53;5.13;;;;;;;19.42;67.44;100400.75;1444526;89;21514;-90
2021/08/23 00:20:16;;;;;;;5.37;4.60;;;;;;;19.46;67.21;100401.15;1452049;89;22354;-89
2021/08/23 00:23:02;;;;;;;9.77;4.40;;;;;;;19.48;66.99;100400.41;1437484;90;21441;-88
2021/08/23 00:25:09;;;;;;;8.87;4.70;;;;;;;19.48;66.77;100409.80;1441343;90;21507;-89
2021/08/23 00:27:35;;;;;;;6.40;4.10;;;;;;;19.49;66.65;100407.45;1447228;89;22359;-88
2021/08/23 00:30:03;;;;;;;5.13;4.63;;;;;;;19.51;66.35;100413.44;1454227;89;21553;-89
2021/08/23 00:32:29;;;;;;;4.80;4.23;;;;;;;19.51;66.47;100411.58;1456774;89;21575;-89
2021/08/23 00:34:57;;;;;;;4.67;4.00;;;;;;;19.54;67.04;100410.34;1458424;89;21655;-89
2021/08/23 00:37:23;;;;;;;5.07;3.70;;;;;;;19.56;66.86;100409.60;1448599;89;21501;-90
2021/08/23 00:39:49;;;;;;;7.30;3.70;;;;;;;19.59;67.32;100415.89;1449695;90;21464;-90
2021/08/23 00:42:16;;;;;;;8.33;3.97;;;;;;;19.52;67.67;100421.27;1452235;89;21515;-90
2021/08/23 00:44:42;;;;;;;5.20;4.43;;;;;;;19.51;67.25;100429.03;1455914;90;21486;-88
2021/08/23 00:47:09;;;;;;;5.40;4.10;;;;;;;19.49;67.24;100432.95;1448645;89;22380;-88
2021/08/23 00:49:36;;;;;;;4.73;4.23;;;;;;;19.47;67.21;100440.37;1451573;90;21530;-88
2021/08/23 00:52:08;;;;;;;11.27;4.80;;;;;;;19.43;67.54;100431.91;1446651;89;21493;-89
2021/08/23 00:54:35;;;;;;;5.30;4.13;;;;;;;19.42;67.98;100424.05;1457259;89;22386;-89
2021/08/23 00:57:04;;;;;;;5.00;3.67;;;;;;;19.43;68.65;100432.43;1463748;89;21485;-91
2021/08/23 00:59:35;;;;;;;9.87;4.80;;;;;;;19.32;69.02;100438.70;1461322;89;21641;-92
2021/08/23 01:02:33;;;;;;;5.30;4.80;;;;;;;19.27;69.19;100427.75;1451132;89;21485;-92
2021/08/23 01:05:15;;;;;;;7.63;4.40;;;;;;;19.28;69.11;100430.77;1454599;88;22705;-91
2021/08/23 01:07:57;;;;;;;7.50;5.03;;;;;;;19.27;69.44;100443.84;1458253;88;21514;-89
2021/08/23 01:10:31;;;;;;;5.03;4.50;;;;;;;19.21;68.76;100448.69;1455424;89;22350;-89
2021/08/23 01:13:00;;;;;;;6.77;4.90;;;;;;;19.17;69.15;100451.48;1455975;89;21633;-88
2021/08/23 01:15:26;;;;;;;5.30;3.80;;;;;;;19.20;69.52;100435.50;1457078;89;21648;-89
2021/08/23 01:17:55;;;;;;;7.40;4.90;;;;;;;19.21;70.41;100439.30;1467336;88;21529;-88
2021/08/23 01:20:21;;;;;;;9.43;5.30;;;;;;;19.13;70.48;100443.52;1476588;88;21593;-88
2021/08/23 01:22:50;;;;;;;8.70;4.73;;;;;;;19.14;70.57;100442.50;1482182;87;21522;-89
2021/08/23 01:25:25;;;;;;;8.00;5.10;;;;;;;19.12;70.73;100435.16;1482514;88;21574;-89
2021/08/23 01:28:32;;;;;;;7.73;4.97;;;;;;;19.08;70.54;100429.39;1472555;87;21515;-89
2021/08/23 01:31:16;;;;;;;5.87;4.83;;;;;;;19.06;70.86;100431.95;1481527;88;21419;-89
2021/08/23 01:33:44;;;;;;;7.93;4.67;;;;;;;19.03;71.62;100428.34;1475829;88;22298;-89
2021/08/23 01:36:12;;;;;;;8.30;5.50;;;;;;;19.02;71.73;100426.67;1472955;88;22842;-89
2021/08/23 01:38:39;;;;;;;15.23;6.30;;;;;;;18.99;71.88;100414.52;1479679;87;22572;-87
2021/08/23 01:41:08;;;;;;;6.67;5.20;;;;;;;18.98;72.54;100403.98;1484242;88;21493;-88
2021/08/23 01:43:36;;;;;;;6.90;5.60;;;;;;;18.96;72.29;100397.98;1475263;88;21419;-88
2021/08/23 01:46:03;;;;;;;6.47;5.03;;;;;;;18.91;72.28;100396.75;1476306;87;21419;-88
2021/08/23 01:48:29;;;;;;;9.60;5.33;;;;;;;18.92;72.39;100409.12;1477955;87;21470;-89
2021/08/23 01:50:55;;;;;;;12.83;5.37;;;;;;;18.87;72.79;100407.58;1488843;88;21412;-90
2021/08/23 01:53:23;;;;;;;7.13;5.37;;;;;;;18.80;73.45;100416.11;1479231;87;21530;-90
2021/08/23 01:55:51;;;;;;;8.63;6.23;;;;;;;18.75;74.46;100433.82;1482249;87;21610;-90
2021/08/23 01:58:19;;;;;;;11.43;6.80;;;;;;;18.68;74.73;100441.81;1492777;88;21654;-89
2021/08/23 02:00:45;;;;;;;10.83;5.77;;;;;;;18.60;75.29;100455.39;1478474;87;21500;-89
2021/08/23 02:03:11;;;;;;;14.13;5.90;;;;;;;18.52;76.11;100452.88;1476940;87;21507;-89
2021/08/23 02:05:37;;;;;;;7.73;6.17;;;;;;;18.49;75.42;100452.23;1489444;88;21507;-89
2021/08/23 02:08:04;;;;;;;7.03;5.80;;;;;;;18.47;75.47;100442.25;1482135;87;22396;-88
2021/08/23 02:10:31;;;;;;;10.20;6.47;;;;;;;18.43;75.65;100434.27;1479647;88;22305;-87
2021/08/23 02:12:58;;;;;;;10.23;6.13;;;;;;;18.41;75.84;100430.98;1483020;88;23479;-88
2021/08/23 02:15:24;;;;;;;12.47;6.10;;;;;;;18.39;76.39;100427.67;1476796;87;21404;-88
2021/08/23 02:17:50;;;;;;;6.93;6.10;;;;;;;18.38;76.54;100432.70;1486381;87;21447;-88
2021/08/23 02:20:16;;;;;;;9.93;6.70;;;;;;;18.37;76.17;100431.05;1479726;88;21433;-90
2021/08/23 02:22:42;;;;;;;9.30;6.37;;;;;;;18.37;76.17;100428.38;1490674;87;21389;-89
2021/08/23 02:25:10;;;;;;;11.83;5.77;;;;;;;18.33;76.95;100429.81;1486549;88;21804;-89
2021/08/23 02:27:36;;;;;;;9.87;5.57;;;;;;;18.32;76.91;100431.33;1477475;86;21442;-89
2021/08/23 02:30:04;;;;;;;7.77;5.50;;;;;;;18.26;78.12;100430.27;1475731;87;22291;-89
2021/08/23 02:32:30;;;;;;;7.20;6.50;;;;;;;18.26;78.14;100434.29;1491975;88;21448;-86
2021/08/23 02:34:56;;;;;;;11.63;6.67;;;;;;;18.30;78.13;100426.67;1484468;87;21360;-88
2021/08/23 02:37:22;;;;;;;9.30;6.17;;;;;;;18.35;78.33;100423.72;1481454;87;21500;-89
2021/08/23 02:39:48;;;;;;;9.40;6.63;;;;;;;18.38;78.15;100414.45;1489009;87;22571;-88
2021/08/23 02:42:14;;;;;;;7.87;6.17;;;;;;;18.41;77.88;100406.02;1487599;88;21470;-89
2021/08/23 02:44:41;;;;;;;11.47;6.20;;;;;;;18.39;77.77;100396.86;1480083;87;21884;-87
2021/08/23 02:47:07;;;;;;;16.43;6.67;;;;;;;18.34;78.53;100398.48;1478371;87;21463;-87
2021/08/23 02:49:33;;;;;;;8.00;5.77;;;;;;;18.33;77.65;100396.32;1483346;87;21345;-87
2021/08/23 02:52:00;;;;;;;8.43;5.40;;;;;;;18.31;77.84;100395.69;1483799;87;21522;-87
2021/08/23 02:54:26;;;;;;;11.20;6.53;;;;;;;18.30;78.33;100399.88;1469058;87;21619;-87
2021/08/23 02:56:52;;;;;;;9.27;5.93;;;;;;;18.27;77.83;100402.48;1477209;88;22270;-87
2021/08/23 02:59:18;;;;;;;9.63;6.43;;;;;;;18.24;77.56;100399.68;1479586;88;21448;-88
2021/08/23 03:01:44;;;;;;;10.13;6.63;;;;;;;18.18;78.39;100392.44;1473743;88;21390;-87
2021/08/23 03:04:10;;;;;;;11.30;6.30;;;;;;;18.16;78.17;100388.30;1479185;88;21398;-87
2021/08/23 03:06:36;;;;;;;9.03;5.77;;;;;;;18.07;78.73;100388.98;1469814;88;21464;-87
2021/08/23 03:09:03;;;;;;;9.10;6.90;;;;;;;18.03;78.97;100385.02;1475990;87;22381;-87
2021/08/23 03:11:30;;;;;;;11.13;6.70;;;;;;;18.02;78.30;100383.37;1475868;88;21448;-87
2021/08/23 03:13:57;;;;;;;10.23;6.37;;;;;;;18.01;77.85;100382.56;1475559;88;21479;-87
2021/08/23 03:16:23;;;;;;;7.50;6.13;;;;;;;17.96;78.19;100380.98;1473089;87;21529;-87
2021/08/23 03:18:50;;;;;;;12.53;6.23;;;;;;;17.90;78.87;100371.58;1472198;87;21612;-88
2021/08/23 03:21:17;;;;;;;10.93;6.70;;;;;;;17.90;78.42;100379.09;1472198;88;22548;-88
2021/08/23 03:23:43;;;;;;;14.37;6.00;;;;;;;17.90;78.41;100384.97;1475455;87;21698;-88
2021/08/23 03:26:09;;;;;;;12.33;6.50;;;;;;;17.81;79.23;100385.63;1458874;87;22314;-88
2021/08/23 03:28:35;;;;;;;10.33;6.33;;;;;;;17.81;78.66;100382.95;1460681;88;21435;-88
2021/08/23 03:31:03;;;;;;;9.80;6.70;;;;;;;17.81;78.39;100381.61;1466147;87;22334;-89
2021/08/23 03:33:29;;;;;;;12.60;6.73;;;;;;;17.80;78.04;100379.94;1455360;89;21647;-89
2021/08/23 03:35:56;;;;;;;16.17;6.87;;;;;;;17.79;78.09;100382.31;1452761;90;21471;-89
2021/08/23 03:38:22;;;;;;;8.43;6.33;;;;;;;17.79;78.40;100377.78;1456737;90;21492;-88
2021/08/23 03:40:48;;;;;;;11.07;6.57;;;;;;;17.82;78.44;100387.27;1461017;90;22270;-87
2021/08/23 03:43:14;;;;;;;9.47;6.40;;;;;;;17.86;77.98;100386.36;1448611;90;21405;-87
2021/08/23 03:45:40;;;;;;;9.83;6.17;;;;;;;17.90;77.81;100393.81;1451329;90;21567;-87
2021/08/23 03:48:07;;;;;;;9.30;6.37;;;;;;;17.92;77.55;100393.08;1453905;90;22440;-88
2021/08/23 03:50:33;;;;;;;9.87;7.27;;;;;;;17.93;77.29;100392.08;1451811;90;21412;-88
2021/08/23 03:52:59;;;;;;;10.83;6.40;;;;;;;17.95;76.79;100392.72;1463940;89;21522;-87
2021/08/23 03:55:26;;;;;;;7.57;6.77;;;;;;;17.94;76.96;100392.39;1451724;89;22336;-87
2021/08/23 03:57:52;;;;;;;10.20;6.23;;;;;;;17.97;76.94;100395.19;1464950;89;21471;-88
2021/08/23 04:00:18;;;;;;;8.97;6.20;;;;;;;17.97;76.96;100383.14;1457446;89;22388;-87
2021/08/23 04:02:45;;;;;;;9.10;6.10;;;;;;;17.99;76.98;100383.26;1460503;89;21447;-87
2021/08/23 04:05:12;;;;;;;11.93;6.77;;;;;;;18.01;76.90;100389.73;1453784;89;22395;-87
2021/08/23 04:07:38;;;;;;;8.87;6.10;;;;;;;18.02;76.49;100383.37;1463584;89;21478;-87
2021/08/23 04:10:06;;;;;;;9.73;6.40;;;;;;;18.02;76.41;100384.20;1455127;89;22132;-87
2021/08/23 04:12:32;;;;;;;8.40;5.60;;;;;;;18.01;76.50;100385.23;1457567;89;21625;-87
2021/08/23 04:15:00;;;;;;;6.93;5.70;;;;;;;17.98;76.38;100386.12;1465835;89;22350;-87
2021/08/23 04:17:27;;;;;;;8.97;5.40;;;;;;;18.01;76.36;100387.06;1461610;89;21405;-87
2021/08/23 04:19:53;;;;;;;6.93;5.20;;;;;;;18.02;76.30;100386.88;1459257;89;21389;-88
2021/08/23 04:22:19;;;;;;;9.80;5.73;;;;;;;18.06;76.31;100381.12;1459546;89;21537;-87
2021/08/23 04:24:45;;;;;;;12.90;6.10;;;;;;;18.11;76.05;100381.37;1459454;89;21485;-87
2021/08/23 04:27:11;;;;;;;16.50;6.67;;;;;;;18.15;75.79;100381.27;1458872;89;21597;-87
2021/08/23 04:29:38;;;;;;;7.70;5.80;;;;;;;18.17;75.77;100379.23;1461778;89;21464;-87
2021/08/23 04:32:04;;;;;;;10.90;5.50;;;;;;;18.17;75.52;100377.89;1472937;89;21456;-88
2021/08/23 04:34:31;;;;;;;7.07;5.70;;;;;;;18.18;75.77;100380.39;1448496;89;21471;-87
2021/08/23 04:37:03;;;;;;;9.53;5.83;;;;;;;18.24;75.54;100378.73;1464310;89;22511;-87
2021/08/23 04:39:25;;;;;;;6.70;5.43;;;;;;;18.29;75.60;100376.30;1465322;89;21426;-87
2021/08/23 04:41:51;;;;;;;8.57;6.30;;;;;;;18.32;75.50;100372.39;1456993;89;21420;-87
2021/08/23 04:44:18;;;;;;;8.43;5.57;;;;;;;18.34;75.46;100368.49;1460303;89;21485;-88
2021/08/23 04:46:44;;;;;;;8.33;5.57;;;;;;;18.36;75.02;100370.98;1467906;89;21397;-88
2021/08/23 04:49:10;;;;;;;10.77;6.20;;;;;;;18.38;75.24;100371.07;1470858;89;21441;-88
2021/08/23 04:51:36;;;;;;;7.70;6.20;;;;;;;18.41;74.74;100369.36;1458636;89;22358;-88
2021/08/23 04:54:02;;;;;;;11.47;6.03;;;;;;;18.41;74.91;100370.70;1461831;89;22747;-87
2021/08/23 04:56:28;;;;;;;8.93;5.57;;;;;;;18.42;74.96;100376.36;1461550;89;21448;-87
2021/08/23 04:58:54;;;;;;;10.67;5.87;;;;;;;18.45;74.88;100377.30;1464483;89;21456;-88
2021/08/23 05:01:21;;;;;;;11.40;5.97;;;;;;;18.49;74.79;100376.37;1463377;89;21500;-87
2021/08/23 05:03:47;;;;;;;10.07;5.03;;;;;;;18.54;74.62;100373.93;1459730;88;21647;-87
2021/08/23 05:06:13;;;;;;;7.50;5.23;;;;;;;18.56;74.50;100369.20;1470635;89;21654;-87
2021/08/23 05:08:39;;;;;;;15.67;6.03;;;;;;;18.59;74.37;100367.98;1464484;89;22261;-87
2021/08/23 05:11:06;;;;;;;8.07;5.80;;;;;;;18.62;74.03;100367.05;1462484;89;21463;-88
2021/08/23 05:13:33;;;;;;;9.57;5.40;;;;;;;18.66;74.21;100364.27;1463627;89;22036;-87
2021/08/23 05:15:59;;;;;;;11.87;6.00;;;;;;;18.70;74.12;100360.66;1480977;88;21529;-87
2021/08/23 05:18:25;;;;;;;16.33;6.07;;;;;;;18.75;74.05;100355.56;1467506;88;21545;-87
2021/08/23 05:20:51;;;;;;;9.60;6.07;;;;;;;18.87;73.54;100346.40;1458350;88;21472;-87
2021/08/23 05:23:17;;;;;;;9.27;6.17;;;;;;;18.87;73.54;100346.40;1459057;89;22343;-85
2021/08/23 05:25:44;;;;;;;9.40;5.93;;;;;;;18.94;73.40;100350.75;1455274;88;21658;-86
2021/08/23 05:28:10;;;;;;;10.30;6.20;;;;;;;19.03;73.16;100350.56;1461796;88;22433;-88
2021/08/23 05:30:36;;;;;;;10.63;6.47;;;;;;;19.18;73.31;100355.73;1465729;89;21575;-88
2021/08/23 05:33:03;;;;;;;8.05;5.75;;;;;;;19.35;73.14;100356.97;1464502;89;21435;-88
2021/08/23 05:35:29;;;;;;;14.00;5.97;;;;;;;19.48;72.58;100345.39;1468387;89;21509;-87
2021/08/23 05:37:56;;;;;;;49.53;7.85;;;;;;;19.59;72.10;100340.23;1464220;88;22352;-87
2021/08/23 05:40:26;;;;;;;8.48;5.80;;;;;;;19.66;71.51;100348.30;1456773;88;21471;-89
2021/08/23 05:42:53;;;;;;;9.70;6.30;;;;;;;19.74;71.11;100348.09;1462494;88;21509;-90
2021/08/23 05:45:19;;;;;;;7.90;5.95;;;;;;;19.77;70.94;100353.04;1457988;89;21661;-88
2021/08/23 05:47:45;;;;;;;14.43;6.80;;;;;;;19.82;70.58;100355.08;1467903;88;21426;-89
2021/08/23 05:50:12;;;;;;;10.40;6.22;;;;;;;19.86;70.49;100354.98;1461100;88;22315;-91
2021/08/23 05:52:38;;;;;;;15.90;6.85;;;;;;;19.89;70.55;100352.40;1464486;88;21449;-89
2021/08/23 05:55:05;;;;;;;44.75;6.97;;;;;;;19.95;70.73;100356.92;1452568;88;23571;-90
2021/08/23 05:57:33;;;;;;;9.28;6.42;;;;;;;20.01;70.42;100362.79;1455471;89;21405;-90
2021/08/23 05:59:59;;;;;;;16.52;6.50;;;;;;;20.03;69.88;100364.23;1457790;89;21738;-89
2021/08/23 06:02:25;;;;;;;8.83;5.78;;;;;;;20.08;69.76;100364.92;1447885;90;22358;-90
2021/08/23 06:04:51;;;;;;;14.20;5.97;;;;;;;20.13;69.75;100374.52;1456484;89;21623;-91
2021/08/23 06:07:18;;;;;;;35.38;7.15;;;;;;;20.15;69.39;100371.11;1457599;90;21530;-89
2021/08/23 06:09:44;;;;;;;20.15;6.28;;;;;;;20.19;69.30;100370.16;1453489;89;21559;-90
2021/08/23 06:12:10;;;;;;;11.85;6.12;;;;;;;20.22;69.31;100371.08;1445822;89;21442;-90
2021/08/23 06:14:40;;;;;;;9.35;6.80;;;;;;;20.24;69.48;100375.21;1453229;89;21818;-90
2021/08/23 06:17:04;;;;;;;13.30;6.17;;;;;;;20.32;69.19;100392.16;1452311;89;21552;-90
2021/08/23 06:19:30;;;;;;;13.30;6.20;;;;;;;20.39;68.66;100390.25;1446375;90;22484;-90
2021/08/23 06:21:56;;;;;;;12.68;5.95;;;;;;;20.41;67.98;100391.69;1452860;89;21427;-90
2021/08/23 06:24:23;;;;;;;10.30;5.78;;;;;;;20.46;67.88;100392.41;1450711;88;22543;-90
2021/08/23 06:26:49;;;;;;;11.00;6.60;;;;;;;20.56;67.47;100398.17;1456321;89;21375;-90
2021/08/23 06:29:16;;;;;;;6.65;4.95;;;;;;;20.65;67.56;100395.53;1450915;90;21479;-90
2021/08/23 06:31:42;;;;;;;6.08;5.22;;;;;;;20.78;67.67;100393.84;1450679;89;21464;-90
2021/08/23 06:34:08;;;;;;;8.78;5.83;;;;;;;20.88;67.41;100396.86;1448984;90;22255;-91
2021/08/23 06:36:36;;;;;;;7.33;4.83;;;;;;;20.98;67.50;100394.54;1453293;89;21566;-90
2021/08/23 06:39:03;;;;;;;7.55;5.05;;;;;;;21.09;67.69;100391.16;1445772;89;22484;-90
2021/08/23 06:41:30;;;;;;;7.12;5.28;;;;;;;21.22;67.44;100394.79;1453432;89;21471;-91
2021/08/23 06:43:56;;;;;;;9.73;5.42;;;;;;;21.23;66.60;100393.20;1456632;89;21544;-90
2021/08/23 06:46:22;;;;;;;13.72;5.80;;;;;;;21.27;66.44;100385.55;1446611;90;21992;-90
2021/08/23 06:48:49;;;;;;;6.75;5.92;;;;;;;21.27;65.93;100392.27;1456040;90;21523;-90
2021/08/23 06:51:19;;;;;;;11.30;6.08;;;;;;;21.27;66.15;100392.27;1449745;89;21464;-90
2021/08/23 06:53:44;;;;;;;12.13;6.50;;;;;;;21.35;66.24;100390.14;1455121;89;21493;-90
2021/08/23 06:56:10;;;;;;;10.50;5.60;;;;;;;21.42;66.23;100388.76;1455861;89;22455;-90
2021/08/23 06:58:36;;;;;;;7.90;5.87;;;;;;;21.54;66.24;100392.38;1460120;89;21730;-90
2021/08/23 07:01:02;;;;;;;9.85;5.47;;;;;;;21.57;64.23;100388.42;1456344;90;21412;-90
2021/08/23 07:03:28;;;;;;;11.90;6.10;;;;;;;21.68;65.64;100389.57;1446984;89;21599;-91
2021/08/23 07:05:55;;;;;;;8.70;5.70;;;;;;;21.71;65.48;100382.39;1447542;89;21471;-92
2021/08/23 07:08:26;;;;;;;13.22;5.75;;;;;;;21.70;65.04;100392.34;1458567;86;21448;-91
2021/08/23 07:10:52;;;;;;;8.05;5.40;;;;;;;21.68;64.84;100391.73;1451506;89;22418;-94
2021/08/23 07:13:18;;;;;;;11.68;6.05;;;;;;;21.69;65.08;100392.55;1459651;89;21584;-90
2021/08/23 07:15:44;;;;;;;10.95;5.37;;;;;;;21.76;65.34;100401.41;1453636;90;22335;-89
2021/08/23 07:18:11;;;;;;;10.60;6.62;;;;;;;21.90;65.34;100384.61;1448514;90;21427;-91
2021/08/23 07:20:37;;;;;;;9.65;6.58;;;;;;;21.99;64.53;100389.46;1439018;89;22565;-90
2021/08/23 07:23:04;;;;;;;9.68;5.15;;;;;;;21.99;64.53;100389.46;1440487;90;21560;-89
2021/08/23 07:25:30;;;;;;;11.50;5.10;;;;;;;21.98;64.50;100381.59;1451627;89;21427;-91
2021/08/23 07:27:58;;;;;;;8.98;5.05;;;;;;;22.13;64.66;100390.68;1458968;89;21449;-90
2021/08/23 07:30:27;;;;;;;10.72;5.33;;;;;;;22.34;64.53;100388.08;1437371;89;21530;-90
2021/08/23 07:32:57;;;;;;;8.58;5.17;;;;;;;22.33;63.47;100391.80;1457343;89;22292;-92
2021/08/23 07:35:26;;;;;;;7.53;5.17;;;;;;;22.52;63.70;100390.20;1451582;89;22403;-90
2021/08/23 07:37:56;;;;;;;7.05;4.78;;;;;;;22.66;63.74;100384.65;1464352;89;21602;-92
2021/08/23 07:40:22;;;;;;;7.65;5.58;;;;;;;22.77;63.20;100391.97;1451617;90;21523;-91
2021/08/23 07:42:48;;;;;;;11.73;6.17;;;;;;;22.87;62.83;100394.95;1453972;89;21516;-90
2021/08/23 07:45:17;;;;;;;6.03;4.92;;;;;;;22.98;62.02;100394.17;1459427;88;21440;-92
2021/08/23 07:47:44;;;;;;;8.45;4.85;;;;;;;23.10;60.54;100386.64;1478257;87;21508;-91
2021/08/23 07:50:14;;;;;;;6.50;4.92;;;;;;;23.27;61.30;100390.31;1476498;87;21471;-91
2021/08/23 07:52:42;;;;;;;14.23;5.00;;;;;;;23.41;61.20;100378.23;1464386;87;21457;-90
2021/08/23 07:55:10;;;;;;;8.23;5.90;;;;;;;23.50;60.85;100382.77;1479525;88;21648;-91
2021/08/23 07:57:49;;;;;;;9.28;6.17;;;;;;;23.60;60.67;100386.25;1440555;86;22320;-90
2021/08/23 08:00:19;;;;;;;6.97;5.60;;;;;;;23.51;60.03;100387.66;1494300;87;22373;-92
2021/08/23 08:02:46;;;;;;;12.60;4.78;;;;;;;23.42;59.60;100389.36;1485901;87;21464;-90
2021/08/23 08:05:13;;;;;;;7.30;5.00;;;;;;;23.30;60.02;100386.33;1487132;87;21456;-91
2021/08/23 08:07:46;;;;;;;7.50;5.00;;;;;;;23.25;60.34;100388.89;1495838;87;21507;-92
2021/08/23 08:10:14;;;;;;;11.75;4.83;;;;;;;23.28;60.60;100381.17;1468040;87;21790;-91
2021/08/23 08:12:49;;;;;;;11.55;5.15;;;;;;;23.23;60.08;100383.74;1480016;87;21324;-92
2021/08/23 08:15:15;;;;;;;5.90;5.10;;;;;;;23.18;59.70;100380.38;1474028;87;21434;-92
2021/08/23 08:17:42;;;;;;;10.55;5.83;;;;;;;23.02;60.32;100379.72;1451236;89;22409;-92
2021/08/23 08:20:09;;;;;;;9.28;4.50;;;;;;;23.09;60.87;100372.86;1468841;88;21420;-91
2021/08/23 08:22:36;;;;;;;11.75;5.62;;;;;;;23.17;61.25;100370.64;1467235;88;21611;-92
2021/08/23 08:25:03;;;;;;;8.60;5.53;;;;;;;23.30;61.11;100368.78;1457314;89;21553;-93
2021/08/23 08:27:30;;;;;;;5.47;4.60;;;;;;;23.64;61.04;100375.26;1459855;88;21633;-91
2021/08/23 08:29:58;;;;;;;5.95;4.15;;;;;;;23.85;60.33;100368.45;1467029;88;21538;-92
2021/08/23 08:32:24;;;;;;;7.72;5.15;;;;;;;23.96;58.27;100365.45;1478651;88;21485;-91
2021/08/23 08:34:50;;;;;;;12.28;5.05;;;;;;;24.07;58.18;100363.27;1478674;88;22423;-90
2021/08/23 08:37:28;;;;;;;11.18;4.78;;;;;;;24.20;57.74;100364.37;1442018;88;21435;-93
2021/08/23 08:39:54;;;;;;;12.90;4.83;;;;;;;24.41;58.07;100363.42;1469533;88;22343;-91
2021/08/23 08:42:21;;;;;;;11.68;6.22;;;;;;;24.43;57.50;100364.04;1473098;88;21523;-91
2021/08/23 08:44:47;;;;;;;8.30;4.90;;;;;;;24.48;57.24;100357.35;1481782;88;21316;-90
2021/08/23 08:47:19;;;;;;;11.97;4.75;;;;;;;24.61;56.95;100357.61;1452207;88;21419;-91
2021/08/23 08:49:47;;;;;;;9.05;4.65;;;;;;;24.67;56.00;100363.41;1464104;88;21508;-91
2021/08/23 08:52:16;;;;;;;9.50;4.25;;;;;;;24.64;56.55;100362.54;1461207;89;21516;-92
2021/08/23 08:54:44;;;;;;;11.78;5.20;;;;;;;24.71;55.75;100353.19;1454139;89;21494;-92
2021/08/23 08:57:13;;;;;;;6.10;4.03;;;;;;;24.74;55.75;100355.44;1453775;89;21434;-92
2021/08/23 08:59:41;;;;;;;6.60;4.28;;;;;;;24.88;56.69;100351.05;1450410;89;22197;-91
2021/08/23 09:02:07;;;;;;;7.87;5.40;;;;;;;25.13;56.42;100358.27;1452478;89;21525;-91
2021/08/23 09:04:37;;;;;;;8.60;4.67;;;;;;;25.28;55.72;100356.90;1436505;89;21413;-91
2021/08/23 09:07:15;;;;;;;11.00;4.60;;;;;;;25.32;55.23;100349.91;1458788;89;22506;-92
2021/08/23 09:09:56;;;;;;;7.67;3.90;;;;;;;25.52;55.12;100350.25;1449070;88;21692;-90
2021/08/23 09:12:23;;;;;;;5.33;3.42;;;;;;;25.68;51.75;100354.53;1433521;91;21523;-91
2021/08/23 09:15:06;;;;;;;5.87;5.00;;;;;;;25.82;53.73;100355.81;1434195;89;22387;-90
2021/08/23 09:17:32;;;;;;;7.10;4.17;;;;;;;25.82;52.82;100354.45;1433431;91;21470;-91
2021/08/23 09:20:02;;;;;;;8.18;4.47;;;;;;;25.84;53.01;100356.42;1439433;90;21508;-94
2021/08/23 09:22:28;;;;;;;8.20;4.35;;;;;;;26.01;52.91;100351.77;1437681;91;21716;-91
2021/08/23 09:24:55;;;;;;;8.38;4.20;;;;;;;26.11;51.40;100355.13;1434505;91;22439;-92
2021/08/23 09:27:21;;;;;;;8.73;4.17;;;;;;;26.07;51.10;100351.30;1446483;90;21440;-91
2021/08/23 09:30:00;;;;;;;6.22;3.85;;;;;;;26.38;52.37;100349.75;1445698;91;21529;-91
2021/08/23 09:33:17;;;;;;;6.25;4.95;;;;;;;26.51;50.52;100339.89;1434610;89;21544;-90
2021/08/23 09:35:47;;;;;;;10.53;4.42;;;;;;;26.60;50.92;100342.97;1448971;89;21670;-89
2021/08/23 09:38:17;;;;;;;7.17;4.10;;;;;;;27.04;51.66;100326.53;1459351;89;21530;-93
2021/08/23 09:40:42;;;;;;;10.88;4.40;;;;;;;27.34;50.79;100326.54;1453613;89;22122;-93
2021/08/23 09:43:13;;;;;;;5.62;4.17;;;;;;;27.42;48.06;100322.80;1457983;89;21517;-96
2021/08/23 09:45:47;;;;;;;8.00;4.78;;;;;;;27.40;48.66;100324.13;1452592;89;21601;-96
2021/08/23 09:48:15;;;;;;;5.50;4.30;;;;;;;27.23;47.56;100326.45;1456142;89;22328;-95
2021/08/23 09:50:48;;;;;;;11.10;5.03;;;;;;;27.25;48.62;100328.08;1440837;89;21545;-94
2021/08/23 09:53:20;;;;;;;10.32;4.60;;;;;;;27.18;48.21;100321.52;1469397;89;21631;-94
2021/08/23 09:55:50;;;;;;;8.75;4.03;;;;;;;27.07;47.93;100321.13;1469962;89;22385;-93
2021/08/23 09:58:17;;;;;;;7.45;4.10;;;;;;;27.22;48.63;100317.22;1456833;89;22492;-92
2021/08/23 10:03:24;;;;;;;8.23;4.33;;;;;;;27.56;48.79;100315.52;1456716;86;22564;-92
2021/08/23 10:05:50;;;;;;;6.45;3.90;;;;;;;27.82;48.12;100311.91;1440837;90;21602;-91
2021/08/23 10:08:24;;;;;;;5.72;3.90;;;;;;;28.02;46.62;100312.50;1430465;91;22350;-92
2021/08/23 10:10:52;;;;;;;6.60;3.98;;;;;;;28.09;44.78;100306.29;1433157;89;21537;-92
2021/08/23 10:13:19;;;;;;;5.80;3.83;;;;;;;28.11;46.04;100312.84;1425276;90;21463;-94
2021/08/23 10:15:46;;;;;;;8.30;4.12;;;;;;;28.37;46.88;100312.89;1426899;90;22548;-93
2021/08/23 10:18:16;;;;;;;4.58;3.58;;;;;;;28.53;45.93;100307.23;1429617;90;21640;-94
2021/08/23 10:20:43;;;;;;;16.87;4.05;;;;;;;28.67;46.10;100308.90;1429166;90;21405;-93
2021/08/23 10:23:16;;;;;;;6.80;3.67;;;;;;;28.79;44.72;100302.64;1424158;90;22416;-94
2021/08/23 10:25:48;;;;;;;7.03;4.03;;;;;;;28.90;41.20;100306.19;1429918;90;21730;-95
2021/08/23 10:28:18;;;;;;;4.00;3.35;;;;;;;29.13;44.03;100310.30;1424283;90;21676;-93
2021/08/23 10:30:42;;;;;;;4.90;3.60;;;;;;;29.37;44.14;100302.91;1421654;90;21640;-94
2021/08/23 10:33:19;;;;;;;6.03;3.52;;;;;;;29.59;43.34;100297.95;1413869;91;21492;-93
2021/08/23 10:35:56;;;;;;;4.25;3.50;;;;;;;29.68;42.81;100298.22;1410357;91;21567;-94
2021/08/23 10:38:26;;;;;;;8.98;3.70;;;;;;;29.67;42.09;100296.60;1428092;90;21678;-94
2021/08/23 10:41:15;;;;;;;5.90;3.25;;;;;;;29.76;40.74;100290.02;1417277;91;21434;-94
2021/08/23 10:43:56;;;;;;;5.80;3.47;;;;;;;29.82;41.23;100288.91;1405495;92;21750;-94
2021/08/23 10:46:29;;;;;;;6.92;3.30;;;;;;;29.51;40.55;100286.23;1415134;92;21604;-94
2021/08/23 10:49:00;;;;;;;4.53;3.25;;;;;;;29.31;40.51;100298.55;1420259;92;21648;-94
2021/08/23 10:51:37;;;;;;;8.03;3.00;;;;;;;29.38;41.32;100284.92;1425658;91;21441;-92
2021/08/23 10:54:09;;;;;;;7.12;3.47;;;;;;;29.52;41.39;100286.53;1418320;91;21463;-92
2021/08/23 10:56:40;;;;;;;7.70;3.58;;;;;;;29.80;41.08;100292.45;1412146;91;21662;-92
2021/08/23 10:59:15;;;;;;;8.35;3.67;;;;;;;30.10;40.94;100286.05;1413688;92;21471;-91
2021/08/23 11:01:58;;;;;;;5.67;3.85;;;;;;;30.28;40.56;100281.33;1419880;91;21678;-91
2021/08/23 11:04:41;;;;;;;12.20;7.78;;;;;;;30.57;40.77;100284.13;1416085;91;21442;-92
2021/08/23 11:07:10;;;;;;;8.70;5.95;;;;;;;30.78;39.79;100275.22;1397474;92;21641;-91
2021/08/23 11:09:43;;;;;;;7.30;4.05;;;;;;;31.07;39.27;100273.64;1413989;92;22462;-91
2021/08/23 11:12:19;;;;;;;5.97;3.42;;;;;;;31.11;38.16;100269.25;1395238;92;21463;-93
2021/08/23 11:14:52;;;;;;;8.38;3.12;;;;;;;31.11;38.38;100266.52;1411418;91;21575;-92
2021/08/23 11:17:33;;;;;;;15.48;3.85;;;;;;;30.93;38.43;100263.41;1419995;90;21721;-94
2021/08/23 11:20:03;;;;;;;6.20;3.15;;;;;;;30.93;38.40;100257.94;1440569;90;21619;-93
2021/08/23 11:22:29;;;;;;;5.65;3.60;;;;;;;30.67;37.39;100256.47;1429749;90;21653;-92
2021/08/23 11:24:56;;;;;;;6.75;3.15;;;;;;;30.63;38.14;100258.16;1426080;90;22498;-91
2021/08/23 11:27:22;;;;;;;5.10;3.45;;;;;;;30.35;38.15;100253.70;1444143;90;21945;-92
2021/08/23 11:29:54;;;;;;;6.37;3.33;;;;;;;30.22;38.21;100249.71;1448346;90;21537;-90